sensor_id;sensor_type;location;lat;lon;timestamp;P1;durP1;ratioP1;P2;durP2;ratioP2
52033;SDS011;38045;52.988;6.536;2023-03-01T00:00:46;30.23;;;23.63;;
52033;SDS011;38045;52.988;6.536;2023-03-01T00:03:11;32.70;;;22.85;;
52033;SDS011;38045;52.988;6.536;2023-03-01T00:05:43;30.15;;;23.92;;
52033;SDS011;38045;52.988;6.536;2023-03-01T00:08:10;36.20;;;24.67;;
52033;SDS011;38045;52.988;6.536;2023-03-01T00:10:36;34.83;;;23.40;;
52033;SDS011;38045;52.988;6.536;2023-03-01T00:13:02;31.40;;;24.02;;
52033;SDS011;38045;52.988;6.536;2023-03-01T00:15:30;23.52;;;19.27;;
52033;SDS011;38045;52.988;6.536;2023-03-01T00:17:56;26.70;;;21.40;;
52033;SDS011;38045;52.988;6.536;2023-03-01T00:20:22;22.55;;;18.20;;
52033;SDS011;38045;52.988;6.536;2023-03-01T00:22:48;30.40;;;20.33;;
52033;SDS011;38045;52.988;6.536;2023-03-01T00:25:13;26.95;;;23.45;;
52033;SDS011;38045;52.988;6.536;2023-03-01T00:27:39;31.00;;;24.13;;
52033;SDS011;38045;52.988;6.536;2023-03-01T00:30:04;29.13;;;21.63;;
52033;SDS011;38045;52.988;6.536;2023-03-01T00:32:31;28.70;;;20.38;;
52033;SDS011;38045;52.988;6.536;2023-03-01T00:34:56;29.80;;;21.80;;
52033;SDS011;38045;52.988;6.536;2023-03-01T00:37:22;33.47;;;23.92;;
52033;SDS011;38045;52.988;6.536;2023-03-01T00:39:48;29.98;;;22.70;;
52033;SDS011;38045;52.988;6.536;2023-03-01T00:42:14;28.55;;;23.70;;
52033;SDS011;38045;52.988;6.536;2023-03-01T00:44:41;29.17;;;22.30;;
52033;SDS011;38045;52.988;6.536;2023-03-01T00:47:07;38.67;;;24.05;;
52033;SDS011;38045;52.988;6.536;2023-03-01T00:49:33;26.02;;;21.08;;
52033;SDS011;38045;52.988;6.536;2023-03-01T00:51:59;32.72;;;23.70;;
52033;SDS011;38045;52.988;6.536;2023-03-01T00:54:24;28.27;;;20.35;;
52033;SDS011;38045;52.988;6.536;2023-03-01T00:56:50;36.33;;;24.83;;
52033;SDS011;38045;52.988;6.536;2023-03-01T00:59:15;48.53;;;27.02;;
52033;SDS011;38045;52.988;6.536;2023-03-01T01:01:41;50.78;;;26.40;;
52033;SDS011;38045;52.988;6.536;2023-03-01T01:04:08;127.53;;;33.38;;
52033;SDS011;38045;52.988;6.536;2023-03-01T01:06:38;94.57;;;27.17;;
52033;SDS011;38045;52.988;6.536;2023-03-01T01:09:07;54.13;;;24.92;;
52033;SDS011;38045;52.988;6.536;2023-03-01T01:11:35;61.08;;;26.80;;
52033;SDS011;38045;52.988;6.536;2023-03-01T01:14:01;66.43;;;25.42;;
52033;SDS011;38045;52.988;6.536;2023-03-01T01:16:28;72.22;;;26.08;;
52033;SDS011;38045;52.988;6.536;2023-03-01T01:18:55;64.72;;;22.52;;
52033;SDS011;38045;52.988;6.536;2023-03-01T01:21:22;43.08;;;19.55;;
52033;SDS011;38045;52.988;6.536;2023-03-01T01:23:49;35.22;;;22.55;;
52033;SDS011;38045;52.988;6.536;2023-03-01T01:26:16;45.13;;;20.65;;
52033;SDS011;38045;52.988;6.536;2023-03-01T01:28:44;35.33;;;19.20;;
52033;SDS011;38045;52.988;6.536;2023-03-01T01:31:10;70.28;;;23.60;;
52033;SDS011;38045;52.988;6.536;2023-03-01T01:33:36;41.97;;;21.13;;
52033;SDS011;38045;52.988;6.536;2023-03-01T01:36:02;40.85;;;19.60;;
52033;SDS011;38045;52.988;6.536;2023-03-01T01:38:29;77.15;;;19.80;;
52033;SDS011;38045;52.988;6.536;2023-03-01T01:40:55;64.90;;;20.38;;
52033;SDS011;38045;52.988;6.536;2023-03-01T01:43:22;32.42;;;19.15;;
52033;SDS011;38045;52.988;6.536;2023-03-01T01:45:48;51.25;;;21.60;;
52033;SDS011;38045;52.988;6.536;2023-03-01T01:48:21;60.33;;;24.85;;
52033;SDS011;38045;52.988;6.536;2023-03-01T01:50:56;45.42;;;20.05;;
52033;SDS011;38045;52.988;6.536;2023-03-01T01:53:24;24.33;;;17.08;;
52033;SDS011;38045;52.988;6.536;2023-03-01T01:55:53;26.23;;;20.70;;
52033;SDS011;38045;52.988;6.536;2023-03-01T01:58:22;24.38;;;17.38;;
52033;SDS011;38045;52.988;6.536;2023-03-01T02:03:18;26.13;;;19.52;;
52033;SDS011;38045;52.988;6.536;2023-03-01T02:05:56;28.15;;;19.25;;
52033;SDS011;38045;52.988;6.536;2023-03-01T02:08:30;22.83;;;17.27;;
52033;SDS011;38045;52.988;6.536;2023-03-01T02:11:00;25.08;;;19.83;;
52033;SDS011;38045;52.988;6.536;2023-03-01T02:13:29;28.60;;;19.75;;
52033;SDS011;38045;52.988;6.536;2023-03-01T02:15:56;25.48;;;19.75;;
52033;SDS011;38045;52.988;6.536;2023-03-01T02:18:22;29.63;;;22.55;;
52033;SDS011;38045;52.988;6.536;2023-03-01T02:20:59;25.55;;;19.23;;
52033;SDS011;38045;52.988;6.536;2023-03-01T02:23:30;26.50;;;19.58;;
52033;SDS011;38045;52.988;6.536;2023-03-01T02:28:33;32.45;;;20.77;;
52033;SDS011;38045;52.988;6.536;2023-03-01T02:31:01;26.05;;;18.27;;
52033;SDS011;38045;52.988;6.536;2023-03-01T02:33:46;53.50;;;20.55;;
52033;SDS011;38045;52.988;6.536;2023-03-01T02:36:17;25.50;;;21.27;;
52033;SDS011;38045;52.988;6.536;2023-03-01T02:38:45;22.00;;;19.17;;
52033;SDS011;38045;52.988;6.536;2023-03-01T02:41:13;46.78;;;21.10;;
52033;SDS011;38045;52.988;6.536;2023-03-01T02:43:41;24.50;;;19.20;;
52033;SDS011;38045;52.988;6.536;2023-03-01T02:46:15;29.13;;;18.50;;
52033;SDS011;38045;52.988;6.536;2023-03-01T02:48:48;27.75;;;17.52;;
52033;SDS011;38045;52.988;6.536;2023-03-01T02:56:39;21.60;;;18.67;;
52033;SDS011;38045;52.988;6.536;2023-03-01T02:59:06;19.73;;;16.80;;
52033;SDS011;38045;52.988;6.536;2023-03-01T03:01:33;21.60;;;16.52;;
52033;SDS011;38045;52.988;6.536;2023-03-01T03:04:06;23.23;;;18.92;;
52033;SDS011;38045;52.988;6.536;2023-03-01T03:06:34;23.80;;;18.20;;
52033;SDS011;38045;52.988;6.536;2023-03-01T03:09:00;24.60;;;16.95;;
52033;SDS011;38045;52.988;6.536;2023-03-01T03:11:26;21.98;;;15.88;;
52033;SDS011;38045;52.988;6.536;2023-03-01T03:13:52;22.48;;;17.77;;
52033;SDS011;38045;52.988;6.536;2023-03-01T03:16:18;25.67;;;19.15;;
52033;SDS011;38045;52.988;6.536;2023-03-01T03:18:44;26.67;;;18.00;;
52033;SDS011;38045;52.988;6.536;2023-03-01T03:21:11;23.05;;;18.70;;
52033;SDS011;38045;52.988;6.536;2023-03-01T03:23:37;28.02;;;20.08;;
52033;SDS011;38045;52.988;6.536;2023-03-01T03:26:03;21.95;;;16.17;;
52033;SDS011;38045;52.988;6.536;2023-03-01T03:28:30;18.85;;;15.32;;
52033;SDS011;38045;52.988;6.536;2023-03-01T03:30:57;26.48;;;18.60;;
52033;SDS011;38045;52.988;6.536;2023-03-01T03:33:23;21.10;;;17.05;;
52033;SDS011;38045;52.988;6.536;2023-03-01T03:35:49;25.33;;;18.50;;
52033;SDS011;38045;52.988;6.536;2023-03-01T03:38:17;27.33;;;23.48;;
52033;SDS011;38045;52.988;6.536;2023-03-01T03:40:48;24.15;;;19.02;;
52033;SDS011;38045;52.988;6.536;2023-03-01T03:43:16;23.20;;;18.13;;
52033;SDS011;38045;52.988;6.536;2023-03-01T03:45:44;26.85;;;19.63;;
52033;SDS011;38045;52.988;6.536;2023-03-01T03:48:11;22.45;;;19.95;;
52033;SDS011;38045;52.988;6.536;2023-03-01T03:50:37;22.88;;;17.75;;
52033;SDS011;38045;52.988;6.536;2023-03-01T03:53:05;22.52;;;18.05;;
52033;SDS011;38045;52.988;6.536;2023-03-01T03:55:32;23.88;;;17.50;;
52033;SDS011;38045;52.988;6.536;2023-03-01T03:57:59;21.67;;;16.92;;
52033;SDS011;38045;52.988;6.536;2023-03-01T04:00:32;21.38;;;16.50;;
52033;SDS011;38045;52.988;6.536;2023-03-01T04:02:59;24.17;;;17.70;;
52033;SDS011;38045;52.988;6.536;2023-03-01T04:05:25;19.75;;;14.98;;
52033;SDS011;38045;52.988;6.536;2023-03-01T04:07:51;18.98;;;16.23;;
52033;SDS011;38045;52.988;6.536;2023-03-01T04:10:26;22.55;;;18.08;;
52033;SDS011;38045;52.988;6.536;2023-03-01T04:12:56;21.63;;;17.13;;
52033;SDS011;38045;52.988;6.536;2023-03-01T04:15:23;19.95;;;15.80;;
52033;SDS011;38045;52.988;6.536;2023-03-01T04:17:50;21.88;;;18.73;;
52033;SDS011;38045;52.988;6.536;2023-03-01T04:20:18;21.17;;;17.27;;
52033;SDS011;38045;52.988;6.536;2023-03-01T04:22:57;20.75;;;16.75;;
52033;SDS011;38045;52.988;6.536;2023-03-01T04:25:24;21.20;;;16.00;;
52033;SDS011;38045;52.988;6.536;2023-03-01T04:27:50;21.55;;;16.80;;
52033;SDS011;38045;52.988;6.536;2023-03-01T04:30:16;20.52;;;17.95;;
52033;SDS011;38045;52.988;6.536;2023-03-01T04:32:42;21.58;;;17.00;;
52033;SDS011;38045;52.988;6.536;2023-03-01T04:35:08;20.58;;;17.15;;
52033;SDS011;38045;52.988;6.536;2023-03-01T04:37:34;19.58;;;14.52;;
52033;SDS011;38045;52.988;6.536;2023-03-01T04:40:00;22.48;;;16.77;;
52033;SDS011;38045;52.988;6.536;2023-03-01T04:42:41;18.85;;;14.48;;
52033;SDS011;38045;52.988;6.536;2023-03-01T04:45:07;19.77;;;14.40;;
52033;SDS011;38045;52.988;6.536;2023-03-01T04:47:41;18.60;;;15.85;;
52033;SDS011;38045;52.988;6.536;2023-03-01T04:50:09;21.38;;;17.40;;
52033;SDS011;38045;52.988;6.536;2023-03-01T04:52:37;21.33;;;16.50;;
52033;SDS011;38045;52.988;6.536;2023-03-01T04:55:03;26.20;;;20.58;;
52033;SDS011;38045;52.988;6.536;2023-03-01T04:57:29;20.17;;;14.98;;
52033;SDS011;38045;52.988;6.536;2023-03-01T04:59:55;20.58;;;16.42;;
52033;SDS011;38045;52.988;6.536;2023-03-01T05:02:21;21.60;;;17.63;;
52033;SDS011;38045;52.988;6.536;2023-03-01T05:04:46;23.13;;;18.20;;
52033;SDS011;38045;52.988;6.536;2023-03-01T05:07:12;22.90;;;16.92;;
52033;SDS011;38045;52.988;6.536;2023-03-01T05:09:47;19.42;;;16.40;;
52033;SDS011;38045;52.988;6.536;2023-03-01T05:14:39;21.42;;;15.13;;
52033;SDS011;38045;52.988;6.536;2023-03-01T05:17:05;21.65;;;16.80;;
52033;SDS011;38045;52.988;6.536;2023-03-01T05:19:32;20.70;;;15.48;;
52033;SDS011;38045;52.988;6.536;2023-03-01T05:21:58;20.58;;;16.23;;
52033;SDS011;38045;52.988;6.536;2023-03-01T05:24:29;21.50;;;17.60;;
52033;SDS011;38045;52.988;6.536;2023-03-01T05:26:56;23.60;;;16.30;;
52033;SDS011;38045;52.988;6.536;2023-03-01T05:29:22;20.52;;;15.82;;
52033;SDS011;38045;52.988;6.536;2023-03-01T05:31:55;18.17;;;14.38;;
52033;SDS011;38045;52.988;6.536;2023-03-01T05:34:26;20.08;;;17.38;;
52033;SDS011;38045;52.988;6.536;2023-03-01T05:36:53;19.02;;;15.45;;
52033;SDS011;38045;52.988;6.536;2023-03-01T05:39:20;19.35;;;16.80;;
52033;SDS011;38045;52.988;6.536;2023-03-01T05:41:47;23.05;;;18.33;;
52033;SDS011;38045;52.988;6.536;2023-03-01T05:44:16;20.77;;;16.48;;
52033;SDS011;38045;52.988;6.536;2023-03-01T05:46:42;22.77;;;19.23;;
52033;SDS011;38045;52.988;6.536;2023-03-01T05:49:07;22.98;;;17.83;;
52033;SDS011;38045;52.988;6.536;2023-03-01T05:51:33;19.63;;;16.10;;
52033;SDS011;38045;52.988;6.536;2023-03-01T05:53:59;20.13;;;16.20;;
52033;SDS011;38045;52.988;6.536;2023-03-01T05:56:24;23.02;;;18.42;;
52033;SDS011;38045;52.988;6.536;2023-03-01T05:58:50;20.08;;;14.73;;
52033;SDS011;38045;52.988;6.536;2023-03-01T06:01:15;26.23;;;17.90;;
52033;SDS011;38045;52.988;6.536;2023-03-01T06:03:41;18.13;;;13.70;;
52033;SDS011;38045;52.988;6.536;2023-03-01T06:06:07;18.92;;;15.75;;
52033;SDS011;38045;52.988;6.536;2023-03-01T06:08:32;23.65;;;18.35;;
52033;SDS011;38045;52.988;6.536;2023-03-01T06:10:58;20.65;;;15.65;;
52033;SDS011;38045;52.988;6.536;2023-03-01T06:13:24;21.00;;;17.23;;
52033;SDS011;38045;52.988;6.536;2023-03-01T06:15:50;22.83;;;15.90;;
52033;SDS011;38045;52.988;6.536;2023-03-01T06:18:15;19.63;;;16.05;;
52033;SDS011;38045;52.988;6.536;2023-03-01T06:20:41;18.33;;;14.55;;
52033;SDS011;38045;52.988;6.536;2023-03-01T06:23:07;21.10;;;16.85;;
52033;SDS011;38045;52.988;6.536;2023-03-01T06:25:32;18.95;;;15.77;;
52033;SDS011;38045;52.988;6.536;2023-03-01T06:27:58;20.58;;;18.38;;
52033;SDS011;38045;52.988;6.536;2023-03-01T06:30:24;21.13;;;16.58;;
52033;SDS011;38045;52.988;6.536;2023-03-01T06:32:51;17.60;;;15.52;;
52033;SDS011;38045;52.988;6.536;2023-03-01T06:35:17;22.52;;;16.92;;
52033;SDS011;38045;52.988;6.536;2023-03-01T06:37:44;20.95;;;17.08;;
52033;SDS011;38045;52.988;6.536;2023-03-01T06:40:11;30.23;;;18.80;;
52033;SDS011;38045;52.988;6.536;2023-03-01T06:42:39;24.95;;;18.60;;
52033;SDS011;38045;52.988;6.536;2023-03-01T06:45:06;25.75;;;18.95;;
52033;SDS011;38045;52.988;6.536;2023-03-01T06:47:33;22.65;;;16.52;;
52033;SDS011;38045;52.988;6.536;2023-03-01T06:49:59;22.30;;;16.08;;
52033;SDS011;38045;52.988;6.536;2023-03-01T06:52:26;27.05;;;19.88;;
52033;SDS011;38045;52.988;6.536;2023-03-01T06:54:51;20.40;;;16.08;;
52033;SDS011;38045;52.988;6.536;2023-03-01T06:57:17;26.25;;;19.02;;
52033;SDS011;38045;52.988;6.536;2023-03-01T06:59:43;21.77;;;16.13;;
52033;SDS011;38045;52.988;6.536;2023-03-01T07:02:09;24.55;;;20.88;;
52033;SDS011;38045;52.988;6.536;2023-03-01T07:04:36;23.33;;;18.52;;
52033;SDS011;38045;52.988;6.536;2023-03-01T07:07:02;25.88;;;19.48;;
52033;SDS011;38045;52.988;6.536;2023-03-01T07:09:28;26.20;;;19.70;;
52033;SDS011;38045;52.988;6.536;2023-03-01T07:11:54;26.92;;;20.73;;
52033;SDS011;38045;52.988;6.536;2023-03-01T07:14:19;24.33;;;19.63;;
52033;SDS011;38045;52.988;6.536;2023-03-01T07:16:45;28.08;;;21.35;;
52033;SDS011;38045;52.988;6.536;2023-03-01T07:19:11;24.58;;;20.40;;
52033;SDS011;38045;52.988;6.536;2023-03-01T07:21:37;25.27;;;19.45;;
52033;SDS011;38045;52.988;6.536;2023-03-01T07:24:05;30.83;;;20.38;;
52033;SDS011;38045;52.988;6.536;2023-03-01T07:26:32;24.55;;;18.90;;
52033;SDS011;38045;52.988;6.536;2023-03-01T07:29:01;24.30;;;18.75;;
52033;SDS011;38045;52.988;6.536;2023-03-01T07:31:28;27.13;;;20.65;;
52033;SDS011;38045;52.988;6.536;2023-03-01T07:33:54;23.30;;;17.65;;
52033;SDS011;38045;52.988;6.536;2023-03-01T07:36:20;22.20;;;18.60;;
52033;SDS011;38045;52.988;6.536;2023-03-01T07:38:46;25.63;;;19.98;;
52033;SDS011;38045;52.988;6.536;2023-03-01T07:41:12;26.25;;;20.40;;
52033;SDS011;38045;52.988;6.536;2023-03-01T07:43:38;30.80;;;22.55;;
52033;SDS011;38045;52.988;6.536;2023-03-01T07:46:03;25.35;;;18.67;;
52033;SDS011;38045;52.988;6.536;2023-03-01T07:48:30;25.55;;;20.27;;
52033;SDS011;38045;52.988;6.536;2023-03-01T07:51:03;27.65;;;20.83;;
52033;SDS011;38045;52.988;6.536;2023-03-01T07:53:30;24.67;;;19.48;;
52033;SDS011;38045;52.988;6.536;2023-03-01T07:56:03;28.00;;;21.60;;
52033;SDS011;38045;52.988;6.536;2023-03-01T07:58:30;28.70;;;22.67;;
52033;SDS011;38045;52.988;6.536;2023-03-01T08:00:56;29.92;;;23.17;;
52033;SDS011;38045;52.988;6.536;2023-03-01T08:03:25;28.80;;;20.58;;
52033;SDS011;38045;52.988;6.536;2023-03-01T08:05:51;31.13;;;23.45;;
52033;SDS011;38045;52.988;6.536;2023-03-01T08:08:17;30.05;;;22.70;;
52033;SDS011;38045;52.988;6.536;2023-03-01T08:10:42;32.22;;;24.83;;
52033;SDS011;38045;52.988;6.536;2023-03-01T08:13:08;33.17;;;23.67;;
52033;SDS011;38045;52.988;6.536;2023-03-01T08:15:33;29.67;;;22.65;;
52033;SDS011;38045;52.988;6.536;2023-03-01T08:17:59;31.75;;;24.67;;
52033;SDS011;38045;52.988;6.536;2023-03-01T08:20:25;34.08;;;27.13;;
52033;SDS011;38045;52.988;6.536;2023-03-01T08:22:51;32.00;;;25.67;;
52033;SDS011;38045;52.988;6.536;2023-03-01T08:25:17;36.88;;;26.95;;
52033;SDS011;38045;52.988;6.536;2023-03-01T08:27:43;36.30;;;26.10;;
52033;SDS011;38045;52.988;6.536;2023-03-01T08:30:08;38.85;;;29.15;;
52033;SDS011;38045;52.988;6.536;2023-03-01T08:32:35;34.78;;;25.15;;
52033;SDS011;38045;52.988;6.536;2023-03-01T08:35:04;41.60;;;28.45;;
52033;SDS011;38045;52.988;6.536;2023-03-01T08:37:30;37.33;;;30.00;;
52033;SDS011;38045;52.988;6.536;2023-03-01T08:39:57;43.95;;;27.15;;
52033;SDS011;38045;52.988;6.536;2023-03-01T08:42:23;37.53;;;27.30;;
52033;SDS011;38045;52.988;6.536;2023-03-01T08:44:49;35.60;;;25.98;;
52033;SDS011;38045;52.988;6.536;2023-03-01T08:47:14;43.88;;;27.38;;
52033;SDS011;38045;52.988;6.536;2023-03-01T08:49:40;38.55;;;26.85;;
52033;SDS011;38045;52.988;6.536;2023-03-01T08:52:05;36.28;;;27.40;;
52033;SDS011;38045;52.988;6.536;2023-03-01T08:54:31;37.30;;;28.60;;
52033;SDS011;38045;52.988;6.536;2023-03-01T08:56:57;36.28;;;26.80;;
52033;SDS011;38045;52.988;6.536;2023-03-01T08:59:24;37.38;;;27.52;;
52033;SDS011;38045;52.988;6.536;2023-03-01T09:01:51;38.25;;;27.50;;
52033;SDS011;38045;52.988;6.536;2023-03-01T09:04:16;35.53;;;26.73;;
52033;SDS011;38045;52.988;6.536;2023-03-01T09:06:42;34.65;;;25.20;;
52033;SDS011;38045;52.988;6.536;2023-03-01T09:09:13;38.22;;;27.55;;
52033;SDS011;38045;52.988;6.536;2023-03-01T09:11:41;40.63;;;28.13;;
52033;SDS011;38045;52.988;6.536;2023-03-01T09:14:07;45.58;;;30.40;;
52033;SDS011;38045;52.988;6.536;2023-03-01T09:16:33;39.95;;;26.67;;
52033;SDS011;38045;52.988;6.536;2023-03-01T09:19:01;37.13;;;25.70;;
52033;SDS011;38045;52.988;6.536;2023-03-01T09:21:27;39.90;;;28.63;;
52033;SDS011;38045;52.988;6.536;2023-03-01T09:23:53;40.85;;;30.00;;
52033;SDS011;38045;52.988;6.536;2023-03-01T09:26:20;37.75;;;25.77;;
52033;SDS011;38045;52.988;6.536;2023-03-01T09:28:48;44.20;;;26.45;;
52033;SDS011;38045;52.988;6.536;2023-03-01T09:31:16;35.42;;;24.80;;
52033;SDS011;38045;52.988;6.536;2023-03-01T09:33:45;34.28;;;26.60;;
52033;SDS011;38045;52.988;6.536;2023-03-01T09:36:15;36.08;;;24.58;;
52033;SDS011;38045;52.988;6.536;2023-03-01T09:38:42;38.40;;;25.85;;
52033;SDS011;38045;52.988;6.536;2023-03-01T09:43:56;36.22;;;25.75;;
52033;SDS011;38045;52.988;6.536;2023-03-01T09:46:38;36.25;;;26.13;;
52033;SDS011;38045;52.988;6.536;2023-03-01T09:49:11;35.88;;;24.27;;
52033;SDS011;38045;52.988;6.536;2023-03-01T09:51:42;33.53;;;23.98;;
52033;SDS011;38045;52.988;6.536;2023-03-01T09:54:13;31.25;;;23.20;;
52033;SDS011;38045;52.988;6.536;2023-03-01T09:56:40;34.42;;;24.92;;
52033;SDS011;38045;52.988;6.536;2023-03-01T09:59:25;31.75;;;22.95;;
52033;SDS011;38045;52.988;6.536;2023-03-01T10:04:48;31.85;;;22.83;;
52033;SDS011;38045;52.988;6.536;2023-03-01T10:07:27;28.45;;;21.20;;
52033;SDS011;38045;52.988;6.536;2023-03-01T10:09:54;32.00;;;23.40;;
52033;SDS011;38045;52.988;6.536;2023-03-01T10:12:21;36.67;;;22.35;;
52033;SDS011;38045;52.988;6.536;2023-03-01T10:17:44;35.38;;;22.88;;
52033;SDS011;38045;52.988;6.536;2023-03-01T10:20:25;31.65;;;21.98;;
52033;SDS011;38045;52.988;6.536;2023-03-01T10:22:54;31.38;;;22.63;;
52033;SDS011;38045;52.988;6.536;2023-03-01T10:25:30;30.15;;;21.45;;
52033;SDS011;38045;52.988;6.536;2023-03-01T10:28:16;26.50;;;19.83;;
52033;SDS011;38045;52.988;6.536;2023-03-01T10:30:45;33.33;;;23.45;;
52033;SDS011;38045;52.988;6.536;2023-03-01T10:33:20;32.25;;;22.63;;
52033;SDS011;38045;52.988;6.536;2023-03-01T10:35:49;29.63;;;21.25;;
52033;SDS011;38045;52.988;6.536;2023-03-01T10:38:16;27.92;;;19.25;;
52033;SDS011;38045;52.988;6.536;2023-03-01T10:40:50;30.33;;;21.25;;
52033;SDS011;38045;52.988;6.536;2023-03-01T10:43:19;29.42;;;21.20;;
52033;SDS011;38045;52.988;6.536;2023-03-01T10:45:45;29.33;;;21.25;;
52033;SDS011;38045;52.988;6.536;2023-03-01T10:48:16;30.02;;;21.92;;
52033;SDS011;38045;52.988;6.536;2023-03-01T10:50:51;25.95;;;17.42;;
52033;SDS011;38045;52.988;6.536;2023-03-01T10:53:36;27.70;;;20.25;;
52033;SDS011;38045;52.988;6.536;2023-03-01T10:56:06;22.67;;;18.17;;
52033;SDS011;38045;52.988;6.536;2023-03-01T10:58:37;33.67;;;21.83;;
52033;SDS011;38045;52.988;6.536;2023-03-01T11:01:24;23.95;;;17.08;;
52033;SDS011;38045;52.988;6.536;2023-03-01T11:06:35;28.13;;;20.63;;
52033;SDS011;38045;52.988;6.536;2023-03-01T11:09:22;25.58;;;22.00;;
52033;SDS011;38045;52.988;6.536;2023-03-01T11:11:55;25.98;;;19.00;;
52033;SDS011;38045;52.988;6.536;2023-03-01T11:14:26;27.60;;;18.92;;
52033;SDS011;38045;52.988;6.536;2023-03-01T11:17:00;21.65;;;16.45;;
52033;SDS011;38045;52.988;6.536;2023-03-01T11:19:31;21.20;;;17.50;;
52033;SDS011;38045;52.988;6.536;2023-03-01T11:24:46;24.88;;;17.08;;
52033;SDS011;38045;52.988;6.536;2023-03-01T11:27:21;18.27;;;16.23;;
52033;SDS011;38045;52.988;6.536;2023-03-01T11:29:55;23.95;;;17.35;;
52033;SDS011;38045;52.988;6.536;2023-03-01T11:32:28;20.13;;;15.43;;
52033;SDS011;38045;52.988;6.536;2023-03-01T11:35:08;23.58;;;17.05;;
52033;SDS011;38045;52.988;6.536;2023-03-01T11:37:37;23.65;;;17.73;;
52033;SDS011;38045;52.988;6.536;2023-03-01T11:40:10;20.77;;;15.82;;
52033;SDS011;38045;52.988;6.536;2023-03-01T11:45:14;19.65;;;15.48;;
52033;SDS011;38045;52.988;6.536;2023-03-01T12:01:32;21.15;;;17.30;;
52033;SDS011;38045;52.988;6.536;2023-03-01T12:04:20;22.27;;;16.48;;
52033;SDS011;38045;52.988;6.536;2023-03-01T12:09:47;20.63;;;14.02;;
52033;SDS011;38045;52.988;6.536;2023-03-01T12:16:01;18.50;;;15.98;;
52033;SDS011;38045;52.988;6.536;2023-03-01T12:18:51;20.05;;;14.73;;
52033;SDS011;38045;52.988;6.536;2023-03-01T12:21:28;17.38;;;13.73;;
52033;SDS011;38045;52.988;6.536;2023-03-01T12:26:52;19.15;;;13.90;;
52033;SDS011;38045;52.988;6.536;2023-03-01T12:42:31;15.82;;;11.35;;
52033;SDS011;38045;52.988;6.536;2023-03-01T12:51:32;16.92;;;10.93;;
52033;SDS011;38045;52.988;6.536;2023-03-01T12:54:01;15.67;;;13.03;;
52033;SDS011;38045;52.988;6.536;2023-03-01T12:56:50;19.33;;;12.63;;
52033;SDS011;38045;52.988;6.536;2023-03-01T12:59:25;15.43;;;11.38;;
52033;SDS011;38045;52.988;6.536;2023-03-01T13:02:19;17.98;;;12.65;;
52033;SDS011;38045;52.988;6.536;2023-03-01T13:07:49;15.65;;;13.18;;
52033;SDS011;38045;52.988;6.536;2023-03-01T13:18:43;16.33;;;14.18;;
52033;SDS011;38045;52.988;6.536;2023-03-01T13:20:48;18.73;;;14.77;;
52033;SDS011;38045;52.988;6.536;2023-03-01T13:26:06;21.65;;;16.77;;
52033;SDS011;38045;52.988;6.536;2023-03-01T13:31:10;20.80;;;16.05;;
52033;SDS011;38045;52.988;6.536;2023-03-01T13:36:11;20.17;;;15.60;;
52033;SDS011;38045;52.988;6.536;2023-03-01T13:39:13;15.63;;;12.93;;
52033;SDS011;38045;52.988;6.536;2023-03-01T13:41:53;17.70;;;15.10;;
52033;SDS011;38045;52.988;6.536;2023-03-01T13:46:53;20.92;;;14.75;;
52033;SDS011;38045;52.988;6.536;2023-03-01T13:49:23;18.90;;;16.13;;
52033;SDS011;38045;52.988;6.536;2023-03-01T13:51:53;17.67;;;14.05;;
52033;SDS011;38045;52.988;6.536;2023-03-01T13:54:25;20.10;;;14.88;;
52033;SDS011;38045;52.988;6.536;2023-03-01T13:56:54;22.67;;;15.90;;
52033;SDS011;38045;52.988;6.536;2023-03-01T13:59:22;18.25;;;12.68;;
52033;SDS011;38045;52.988;6.536;2023-03-01T14:01:55;24.80;;;16.15;;
52033;SDS011;38045;52.988;6.536;2023-03-01T14:04:26;19.42;;;16.52;;
52033;SDS011;38045;52.988;6.536;2023-03-01T14:09:44;21.38;;;14.30;;
52033;SDS011;38045;52.988;6.536;2023-03-01T14:15:05;19.02;;;14.52;;
52033;SDS011;38045;52.988;6.536;2023-03-01T14:17:41;17.05;;;14.55;;
52033;SDS011;38045;52.988;6.536;2023-03-01T14:20:23;20.52;;;14.52;;
52033;SDS011;38045;52.988;6.536;2023-03-01T14:25:32;15.32;;;12.88;;
52033;SDS011;38045;52.988;6.536;2023-03-01T14:30:38;17.38;;;14.05;;
52033;SDS011;38045;52.988;6.536;2023-03-01T14:35:52;16.02;;;12.88;;
52033;SDS011;38045;52.988;6.536;2023-03-01T14:38:39;16.30;;;13.10;;
52033;SDS011;38045;52.988;6.536;2023-03-01T14:41:19;13.65;;;12.13;;
52033;SDS011;38045;52.988;6.536;2023-03-01T14:43:50;12.70;;;11.40;;
52033;SDS011;38045;52.988;6.536;2023-03-01T14:46:32;15.60;;;12.02;;
52033;SDS011;38045;52.988;6.536;2023-03-01T14:49:05;13.52;;;11.25;;
52033;SDS011;38045;52.988;6.536;2023-03-01T14:51:36;12.38;;;10.55;;
52033;SDS011;38045;52.988;6.536;2023-03-01T14:54:18;12.38;;;10.73;;
52033;SDS011;38045;52.988;6.536;2023-03-01T14:56:45;14.50;;;11.07;;
52033;SDS011;38045;52.988;6.536;2023-03-01T14:59:12;13.90;;;10.30;;
52033;SDS011;38045;52.988;6.536;2023-03-01T15:01:38;11.15;;;10.07;;
52033;SDS011;38045;52.988;6.536;2023-03-01T15:04:06;11.55;;;9.68;;
52033;SDS011;38045;52.988;6.536;2023-03-01T15:06:35;13.50;;;11.98;;
52033;SDS011;38045;52.988;6.536;2023-03-01T15:09:02;13.40;;;12.10;;
52033;SDS011;38045;52.988;6.536;2023-03-01T15:13:55;15.98;;;11.85;;
52033;SDS011;38045;52.988;6.536;2023-03-01T15:18:49;11.77;;;10.45;;
52033;SDS011;38045;52.988;6.536;2023-03-01T15:21:30;13.18;;;11.88;;
52033;SDS011;38045;52.988;6.536;2023-03-01T15:26:40;12.43;;;11.18;;
52033;SDS011;38045;52.988;6.536;2023-03-01T15:29:15;14.30;;;12.57;;
52033;SDS011;38045;52.988;6.536;2023-03-01T15:31:50;13.98;;;12.57;;
52033;SDS011;38045;52.988;6.536;2023-03-01T15:34:30;13.90;;;12.32;;
52033;SDS011;38045;52.988;6.536;2023-03-01T15:36:58;16.50;;;13.15;;
52033;SDS011;38045;52.988;6.536;2023-03-01T15:39:33;14.03;;;12.63;;
52033;SDS011;38045;52.988;6.536;2023-03-01T15:42:07;13.45;;;11.88;;
52033;SDS011;38045;52.988;6.536;2023-03-01T15:44:38;15.82;;;13.77;;
52033;SDS011;38045;52.988;6.536;2023-03-01T15:50:11;14.93;;;13.52;;
52033;SDS011;38045;52.988;6.536;2023-03-01T15:52:48;16.50;;;13.85;;
52033;SDS011;38045;52.988;6.536;2023-03-01T15:57:43;17.52;;;15.68;;
52033;SDS011;38045;52.988;6.536;2023-03-01T16:00:09;14.75;;;12.88;;
52033;SDS011;38045;52.988;6.536;2023-03-01T16:02:36;17.80;;;14.35;;
52033;SDS011;38045;52.988;6.536;2023-03-01T16:05:02;17.33;;;13.93;;
52033;SDS011;38045;52.988;6.536;2023-03-01T16:07:28;14.43;;;12.25;;
52033;SDS011;38045;52.988;6.536;2023-03-01T16:09:56;14.40;;;11.35;;
52033;SDS011;38045;52.988;6.536;2023-03-01T16:12:25;16.23;;;14.52;;
52033;SDS011;38045;52.988;6.536;2023-03-01T16:14:50;20.20;;;16.17;;
52033;SDS011;38045;52.988;6.536;2023-03-01T16:17:18;20.05;;;16.77;;
52033;SDS011;38045;52.988;6.536;2023-03-01T16:19:44;16.75;;;14.95;;
52033;SDS011;38045;52.988;6.536;2023-03-01T16:22:10;17.13;;;13.20;;
52033;SDS011;38045;52.988;6.536;2023-03-01T16:24:36;17.45;;;15.27;;
52033;SDS011;38045;52.988;6.536;2023-03-01T16:27:01;22.08;;;15.13;;
52033;SDS011;38045;52.988;6.536;2023-03-01T16:29:27;17.65;;;14.63;;
52033;SDS011;38045;52.988;6.536;2023-03-01T16:31:54;23.45;;;15.90;;